Aviation Digital Data Service (ADDS)

Output produced by METARs form (0739 UTC 18 September 2014)
found at http://aviationweather.gov/adds/metars/
 
KBTV 180524Z 1806/1906 20004KT P6SM BKN080 
     FM180900 VRB04KT P6SM OVC025 
     FM181200 34005KT P6SM BKN025 OVC040 
     FM181700 34008KT P6SM SCT040 
     FM190000 35005KT P6SM SKC